createdAt,value
2022-12-23T00:02:09.251Z,8.20
2022-12-23T00:04:36.789Z,8.20
2022-12-23T00:07:04.371Z,8.20
2022-12-23T00:09:31.939Z,8.20
2022-12-23T00:12:19.665Z,8.20
2022-12-23T00:15:05.501Z,8.20
2022-12-23T00:17:42.726Z,8.10
2022-12-23T00:20:11.633Z,8.20
2022-12-23T00:23:14.547Z,8.30
2022-12-23T00:25:44.862Z,8.30
2022-12-23T00:28:14.490Z,8.30
2022-12-23T00:30:48.716Z,8.30
2022-12-23T00:33:17.345Z,8.20
2022-12-23T00:35:45.543Z,8.20
2022-12-23T00:38:13.517Z,8.10
2022-12-23T00:40:59.343Z,8.10
2022-12-23T00:43:27.187Z,8.10
2022-12-23T00:45:54.813Z,8.20
2022-12-23T00:48:41.250Z,8.30
2022-12-23T00:51:08.761Z,8.30
2022-12-23T00:53:36.165Z,8.30
2022-12-23T00:56:03.672Z,8.30
2022-12-23T00:58:32.064Z,8.20
2022-12-23T01:01:18.170Z,8.20
2022-12-23T01:04:04.346Z,8.10
2022-12-23T01:06:31.893Z,8.10
2022-12-23T01:08:59.394Z,8.00
2022-12-23T01:11:26.926Z,8.00
2022-12-23T01:13:54.387Z,8.10
2022-12-23T01:16:21.927Z,8.10
2022-12-23T01:18:49.525Z,8.10
2022-12-23T01:21:16.985Z,8.00
2022-12-23T01:23:44.495Z,8.00
2022-12-23T01:26:12.356Z,8.00
2022-12-23T01:28:39.906Z,8.00
2022-12-23T01:31:09.744Z,8.00
2022-12-23T01:33:37.306Z,8.00
2022-12-23T01:36:06.190Z,8.20
2022-12-23T01:38:34.363Z,8.20
2022-12-23T01:41:01.877Z,8.20
2022-12-23T01:43:49.068Z,8.30
2022-12-23T01:46:16.938Z,8.20
2022-12-23T01:48:47.578Z,8.20
2022-12-23T01:51:23.857Z,8.20
2022-12-23T01:53:53.393Z,8.20
2022-12-23T01:56:38.232Z,8.20
2022-12-23T01:59:08.023Z,8.10
2022-12-23T02:01:54.241Z,8.10
2022-12-23T02:04:23.529Z,8.10
2022-12-23T02:07:09.492Z,8.20
2022-12-23T02:09:38.294Z,8.20
2022-12-23T02:12:22.342Z,8.20
2022-12-23T02:15:08.579Z,8.20
2022-12-23T02:17:58.999Z,8.10
2022-12-23T02:20:41.065Z,8.10
2022-12-23T02:23:11.659Z,8.20
2022-12-23T02:25:53.327Z,8.10
2022-12-23T02:28:30.101Z,8.20
2022-12-23T02:31:11.252Z,8.10
2022-12-23T02:33:44.821Z,8.20
2022-12-23T02:36:29.152Z,8.10
2022-12-23T02:38:56.605Z,8.20
2022-12-23T02:41:30.385Z,8.20
2022-12-23T02:44:04.339Z,8.20
2022-12-23T02:46:52.010Z,8.40
2022-12-23T02:49:23.660Z,8.20
2022-12-23T02:51:54.085Z,8.30
2022-12-23T02:54:32.647Z,8.20
2022-12-23T02:57:01.641Z,8.20
2022-12-23T02:59:30.992Z,8.20
2022-12-23T03:01:58.897Z,8.30
2022-12-23T03:04:26.565Z,8.30
2022-12-23T03:06:54.794Z,8.40
2022-12-23T03:09:36.343Z,8.30
2022-12-23T03:12:12.950Z,8.20
2022-12-23T03:14:51.202Z,8.10
2022-12-23T03:17:36.319Z,8.20
2022-12-23T03:20:09.609Z,8.30
2022-12-23T03:22:55.827Z,8.20
2022-12-23T03:25:29.391Z,8.10
2022-12-23T03:27:56.880Z,8.20
2022-12-23T03:30:24.598Z,8.20
2022-12-23T03:33:08.178Z,8.20
2022-12-23T03:35:38.282Z,8.20
2022-12-23T03:38:06.046Z,8.20
2022-12-23T03:40:36.906Z,8.20
2022-12-23T03:43:07.399Z,8.20
2022-12-23T03:45:41.151Z,8.20
2022-12-23T03:48:16.990Z,8.20
2022-12-23T03:50:46.736Z,8.10
2022-12-23T03:53:17.594Z,8.10
2022-12-23T03:55:47.070Z,8.10
2022-12-23T03:58:28.862Z,8.10
2022-12-23T04:01:08.503Z,8.10
2022-12-23T04:03:38.271Z,8.20
2022-12-23T04:06:10.612Z,8.10
2022-12-23T04:08:39.112Z,8.10
2022-12-23T04:11:06.718Z,8.10
2022-12-23T04:13:34.278Z,8.10
2022-12-23T04:16:02.539Z,8.00
2022-12-23T04:18:30.032Z,8.10
2022-12-23T04:20:57.549Z,8.10
2022-12-23T04:23:25.104Z,8.30
2022-12-23T04:25:52.523Z,8.40
2022-12-23T04:28:20.518Z,8.20
2022-12-23T04:30:47.969Z,8.20
2022-12-23T04:33:15.411Z,8.10
2022-12-23T04:35:42.882Z,8.10
2022-12-23T04:38:10.293Z,8.00
2022-12-23T04:40:37.767Z,8.00
2022-12-23T04:43:05.329Z,8.10
2022-12-23T04:45:32.804Z,8.30
2022-12-23T04:48:00.349Z,8.20
2022-12-23T04:50:27.847Z,8.10
2022-12-23T04:52:55.371Z,8.00
2022-12-23T04:55:22.904Z,8.00
2022-12-23T04:57:50.354Z,8.10
2022-12-23T05:00:18.091Z,8.20
2022-12-23T05:02:45.704Z,8.20
2022-12-23T05:05:13.285Z,8.30
2022-12-23T05:07:40.739Z,8.20
2022-12-23T05:10:08.643Z,8.20
2022-12-23T05:12:36.071Z,8.10
2022-12-23T05:15:03.635Z,8.20
2022-12-23T05:17:31.187Z,8.20
2022-12-23T05:19:58.685Z,8.30
2022-12-23T05:22:26.236Z,8.40
2022-12-23T05:24:53.680Z,8.50
2022-12-23T05:27:21.189Z,8.40
2022-12-23T05:29:48.687Z,8.30
2022-12-23T05:32:16.202Z,8.20
2022-12-23T05:34:43.752Z,8.20
2022-12-23T05:37:11.313Z,8.10
2022-12-23T05:39:38.855Z,8.10
2022-12-23T05:42:06.467Z,8.30
2022-12-23T05:44:33.969Z,8.30
2022-12-23T05:47:01.595Z,8.40
2022-12-23T05:49:29.016Z,8.50
2022-12-23T05:51:56.504Z,8.50
2022-12-23T05:54:24.041Z,8.40
2022-12-23T05:56:51.530Z,8.40
2022-12-23T05:59:19.393Z,8.50
2022-12-23T06:01:47.005Z,8.50
2022-12-23T06:04:14.802Z,8.60
2022-12-23T06:06:42.377Z,8.60
2022-12-23T06:09:10.074Z,8.60
2022-12-23T06:11:37.672Z,8.60
2022-12-23T06:14:07.366Z,8.50
2022-12-23T06:16:34.888Z,8.40
2022-12-23T06:19:02.981Z,8.40
2022-12-23T06:21:30.520Z,8.40
2022-12-23T06:23:58.191Z,8.40
2022-12-23T06:26:26.650Z,8.30
2022-12-23T06:28:54.306Z,8.30
2022-12-23T06:31:21.806Z,8.40
2022-12-23T06:33:49.377Z,8.50
2022-12-23T06:36:16.847Z,8.30
2022-12-23T06:38:44.384Z,8.30
2022-12-23T06:41:12.567Z,8.40
2022-12-23T06:43:39.991Z,8.40
2022-12-23T06:46:07.617Z,8.10
2022-12-23T06:48:35.239Z,8.00
2022-12-23T06:51:02.652Z,8.00
2022-12-23T06:53:30.190Z,7.90
2022-12-23T06:56:01.234Z,7.90
2022-12-23T06:58:28.959Z,7.90
2022-12-23T07:00:56.596Z,7.90
2022-12-23T07:03:24.176Z,8.10
2022-12-23T07:05:51.784Z,8.10
2022-12-23T07:08:19.529Z,8.00
2022-12-23T07:10:47.091Z,7.90
2022-12-23T07:13:14.656Z,7.90
2022-12-23T07:15:42.258Z,8.00
2022-12-23T07:18:09.796Z,8.00
2022-12-23T07:20:37.272Z,8.00
2022-12-23T07:23:04.864Z,8.20
2022-12-23T07:25:32.362Z,8.30
2022-12-23T07:27:59.879Z,8.30
2022-12-23T07:30:27.555Z,8.10
2022-12-23T07:32:55.509Z,8.00
2022-12-23T07:35:23.132Z,8.30
2022-12-23T07:37:55.163Z,8.40
2022-12-23T07:40:26.073Z,8.30
2022-12-23T07:42:57.627Z,8.20
2022-12-23T07:45:26.063Z,8.10
2022-12-23T07:47:54.612Z,8.10
2022-12-23T07:50:22.370Z,8.20
2022-12-23T07:52:49.928Z,8.20
2022-12-23T07:55:17.568Z,8.20
2022-12-23T07:57:48.165Z,8.20
2022-12-23T08:00:16.141Z,8.40
2022-12-23T08:02:44.147Z,8.40
2022-12-23T08:05:13.301Z,8.40
2022-12-23T08:07:41.303Z,8.40
2022-12-23T08:10:09.946Z,8.40
2022-12-23T08:12:37.492Z,8.30
2022-12-23T08:15:05.160Z,8.40
2022-12-23T08:17:32.780Z,8.50
2022-12-23T08:20:00.294Z,8.70
2022-12-23T08:22:27.853Z,8.70
2022-12-23T08:24:55.305Z,8.60
2022-12-23T08:27:22.832Z,8.50
2022-12-23T08:29:50.443Z,8.60
2022-12-23T08:32:17.958Z,8.60
2022-12-23T08:34:45.530Z,8.70
2022-12-23T08:37:13.111Z,8.70
2022-12-23T08:39:41.169Z,8.70
2022-12-23T08:42:09.382Z,8.70
2022-12-23T08:44:36.890Z,8.70
2022-12-23T08:47:04.312Z,8.70
2022-12-23T08:49:31.785Z,8.70
2022-12-23T08:51:59.343Z,8.70
2022-12-23T08:54:28.401Z,8.70
2022-12-23T08:56:55.799Z,8.80
2022-12-23T08:59:23.275Z,8.90
2022-12-23T09:01:50.864Z,9.00
2022-12-23T09:04:18.933Z,9.00
2022-12-23T09:06:46.575Z,9.00
2022-12-23T09:09:14.684Z,9.00
2022-12-23T09:11:42.243Z,9.20
2022-12-23T09:14:10.472Z,9.10
2022-12-23T09:16:38.114Z,9.10
2022-12-23T09:19:05.908Z,9.30
2022-12-23T09:21:33.553Z,9.50
2022-12-23T09:24:01.143Z,9.60
2022-12-23T09:26:29.750Z,9.50
2022-12-23T09:28:57.830Z,9.20
2022-12-23T09:31:30.514Z,9.30
2022-12-23T09:34:01.756Z,9.40
2022-12-23T09:36:30.381Z,9.40
2022-12-23T09:38:58.379Z,9.30
2022-12-23T09:41:44.850Z,9.30
2022-12-23T09:44:18.788Z,9.30
2022-12-23T09:46:52.606Z,9.30
2022-12-23T09:49:21.181Z,9.30
2022-12-23T09:51:49.276Z,9.50
2022-12-23T09:54:22.588Z,9.70
2022-12-23T09:56:58.739Z,9.60
2022-12-23T09:59:32.161Z,9.50
2022-12-23T10:02:03.861Z,9.70
2022-12-23T10:04:34.229Z,9.70
2022-12-23T10:07:03.198Z,9.60
2022-12-23T10:09:41.696Z,9.70
2022-12-23T10:12:14.862Z,9.80
2022-12-23T10:14:43.653Z,9.80
2022-12-23T10:17:16.387Z,9.90
2022-12-23T10:19:45.933Z,9.90
2022-12-23T10:22:18.603Z,10.00
2022-12-23T10:24:47.038Z,10.00
2022-12-23T10:27:26.719Z,10.00
2022-12-23T10:29:54.365Z,10.10
2022-12-23T10:32:40.295Z,10.20
2022-12-23T10:35:35.019Z,10.20
2022-12-23T10:38:15.188Z,10.00
2022-12-23T10:40:50.505Z,9.90
2022-12-23T10:43:23.966Z,9.90
2022-12-23T10:46:03.990Z,10.10
2022-12-23T10:48:40.667Z,10.30
2022-12-23T10:51:17.431Z,10.40
2022-12-23T10:53:54.423Z,10.60
2022-12-23T10:56:22.380Z,10.50
2022-12-23T10:58:55.424Z,10.50
2022-12-23T11:01:27.085Z,10.40
2022-12-23T11:04:07.807Z,10.50
2022-12-23T11:06:38.751Z,10.40
2022-12-23T11:09:07.218Z,10.40
2022-12-23T11:11:53.685Z,10.40
2022-12-23T11:14:40.267Z,10.30
2022-12-23T11:17:28.371Z,10.30
2022-12-23T11:20:12.312Z,10.30
2022-12-23T11:22:49.484Z,10.20
2022-12-23T11:25:29.263Z,10.30
2022-12-23T11:27:58.876Z,10.30
2022-12-23T11:30:27.181Z,10.30
2022-12-23T11:32:54.700Z,10.20
2022-12-23T11:35:30.263Z,10.20
2022-12-23T11:37:58.899Z,10.20
2022-12-23T11:40:29.592Z,10.20
2022-12-23T11:43:02.143Z,10.40
2022-12-23T11:45:31.017Z,10.50
2022-12-23T11:47:58.649Z,10.40
2022-12-23T11:50:28.595Z,10.40
2022-12-23T11:53:00.936Z,10.40
2022-12-23T11:55:29.906Z,10.30
2022-12-23T11:57:57.566Z,10.30
2022-12-23T12:00:26.490Z,10.20
2022-12-23T12:02:55.898Z,10.20
2022-12-23T12:05:29.020Z,10.20
2022-12-23T12:08:01.582Z,10.20
2022-12-23T12:10:31.722Z,10.30
2022-12-23T12:13:02.263Z,10.40
2022-12-23T12:15:37.211Z,10.40
2022-12-23T12:18:07.246Z,10.40
2022-12-23T12:20:41.294Z,10.40
2022-12-23T12:23:14.940Z,10.40
2022-12-23T12:25:44.433Z,10.20
2022-12-23T12:28:18.332Z,10.30
2022-12-23T12:30:52.852Z,10.40
2022-12-23T12:33:25.827Z,10.30
2022-12-23T12:36:05.853Z,10.40
2022-12-23T12:38:36.299Z,10.50
2022-12-23T12:41:06.689Z,10.50
2022-12-23T12:43:40.448Z,10.50
2022-12-23T12:46:20.616Z,10.40
2022-12-23T12:49:02.763Z,10.40
2022-12-23T12:51:33.896Z,10.40
2022-12-23T12:54:06.130Z,10.50
2022-12-23T12:56:40.545Z,10.50
2022-12-23T12:59:13.925Z,10.40
2022-12-23T13:01:50.578Z,10.50
2022-12-23T13:04:21.325Z,10.50
2022-12-23T13:06:58.185Z,10.50
2022-12-23T13:09:25.693Z,10.50
2022-12-23T13:12:08.269Z,10.50
2022-12-23T13:14:56.488Z,10.50
2022-12-23T13:17:33.977Z,10.40
2022-12-23T13:20:01.548Z,10.40
2022-12-23T13:22:32.510Z,10.40
2022-12-23T13:25:04.032Z,10.40
2022-12-23T13:27:34.595Z,10.30
2022-12-23T13:30:09.041Z,10.30
2022-12-23T13:32:50.221Z,10.30
2022-12-23T13:35:27.024Z,10.30
2022-12-23T13:37:58.501Z,10.30
2022-12-23T13:40:29.576Z,10.20
2022-12-23T13:43:00.457Z,10.20
2022-12-23T13:45:38.856Z,10.20
2022-12-23T13:48:16.962Z,10.20
2022-12-23T13:50:48.113Z,10.10
2022-12-23T13:53:15.559Z,10.10
2022-12-23T13:56:01.966Z,10.10
2022-12-23T13:58:31.490Z,10.10
2022-12-23T14:01:08.389Z,10.10
2022-12-23T14:03:37.059Z,10.20
2022-12-23T14:06:20.130Z,10.20
2022-12-23T14:08:47.916Z,10.10
2022-12-23T14:11:28.318Z,9.90
2022-12-23T14:14:02.956Z,10.00
2022-12-23T14:16:42.620Z,9.90
2022-12-23T14:19:24.719Z,9.90
2022-12-23T14:22:15.240Z,9.80
2022-12-23T14:24:55.125Z,9.90
2022-12-23T14:27:25.711Z,9.90
2022-12-23T14:30:12.079Z,10.00
2022-12-23T14:32:47.833Z,10.00
2022-12-23T14:35:21.814Z,10.00
2022-12-23T14:38:08.091Z,10.10
2022-12-23T14:40:39.172Z,10.00
2022-12-23T14:43:22.392Z,9.90
2022-12-23T14:45:51.431Z,9.80
2022-12-23T14:48:34.445Z,9.80
2022-12-23T14:51:03.171Z,9.80
2022-12-23T14:53:31.624Z,10.00
2022-12-23T14:56:08.289Z,10.10
2022-12-23T14:58:38.595Z,10.10
2022-12-23T15:01:15.621Z,10.10
2022-12-23T15:03:48.130Z,10.10
2022-12-23T15:06:24.683Z,10.30
2022-12-23T15:08:53.617Z,10.30
2022-12-23T15:11:28.976Z,10.30
2022-12-23T15:13:58.552Z,10.20
2022-12-23T15:16:30.958Z,10.20
2022-12-23T15:19:06.418Z,10.10
2022-12-23T15:21:36.343Z,10.10
2022-12-23T15:24:04.008Z,10.00
2022-12-23T15:26:32.583Z,9.90
2022-12-23T15:29:00.703Z,9.90
2022-12-23T15:31:32.927Z,9.90
2022-12-23T15:34:04.644Z,9.80
2022-12-23T15:36:37.651Z,9.80
2022-12-23T15:39:09.877Z,9.70
2022-12-23T15:41:43.938Z,9.60
2022-12-23T15:44:13.222Z,9.50
2022-12-23T15:46:40.920Z,9.40
2022-12-23T15:49:11.042Z,9.30
2022-12-23T15:54:34.925Z,9.20
2022-12-23T15:57:03.365Z,9.10
2022-12-23T15:59:36.521Z,9.20
2022-12-23T16:02:49.638Z,9.20
2022-12-23T16:05:04.344Z,9.10
2022-12-23T16:07:34.124Z,9.10
2022-12-23T16:10:21.250Z,9.00
2022-12-23T16:12:50.353Z,9.00
2022-12-23T16:15:26.941Z,8.90
2022-12-23T16:18:13.640Z,8.90
2022-12-23T16:20:45.924Z,8.80
2022-12-23T16:23:13.817Z,8.80
2022-12-23T16:25:50.210Z,8.90
2022-12-23T16:28:23.451Z,8.90
2022-12-23T16:30:55.519Z,8.80
2022-12-23T16:33:27.020Z,8.80
2022-12-23T16:35:55.857Z,8.80
2022-12-23T16:38:24.786Z,8.80
2022-12-23T16:40:53.822Z,8.90
2022-12-23T16:43:22.387Z,8.90
2022-12-23T16:45:51.574Z,8.90
2022-12-23T16:48:33.258Z,8.90
2022-12-23T16:51:01.794Z,9.00
2022-12-23T16:53:29.567Z,9.10
2022-12-23T16:56:00.888Z,9.00
2022-12-23T16:58:29.730Z,9.00
2022-12-23T17:00:57.417Z,9.10
2022-12-23T17:03:25.102Z,9.00
2022-12-23T17:05:52.813Z,8.90
2022-12-23T17:08:20.348Z,8.90
2022-12-23T17:10:47.779Z,8.90
2022-12-23T17:13:16.601Z,8.90
2022-12-23T17:15:44.036Z,8.90
2022-12-23T17:18:16.805Z,8.90
2022-12-23T17:20:48.118Z,9.00
2022-12-23T17:23:35.808Z,9.10
2022-12-23T17:26:03.265Z,9.10
2022-12-23T17:28:31.765Z,9.00
2022-12-23T17:30:59.692Z,9.10
2022-12-23T17:33:29.188Z,9.10
2022-12-23T17:35:56.810Z,9.10
2022-12-23T17:38:24.544Z,9.10
2022-12-23T17:40:52.103Z,9.20
2022-12-23T17:43:19.688Z,9.30
2022-12-23T17:45:47.514Z,9.30
2022-12-23T17:48:20.854Z,9.20
2022-12-23T17:50:50.656Z,9.20
2022-12-23T17:53:18.827Z,9.20
2022-12-23T17:55:46.320Z,9.10
2022-12-23T17:58:14.527Z,9.20
2022-12-23T18:00:42.074Z,9.20
2022-12-23T18:03:18.410Z,9.20
2022-12-23T18:05:45.859Z,9.20
2022-12-23T18:08:13.559Z,9.20
2022-12-23T18:10:41.233Z,9.20
2022-12-23T18:13:14.186Z,9.20
2022-12-23T18:15:42.527Z,9.20
2022-12-23T18:18:36.776Z,9.20
2022-12-23T18:21:14.361Z,9.30
2022-12-23T18:23:41.921Z,9.20
2022-12-23T18:26:12.821Z,9.20
2022-12-23T18:28:40.420Z,9.20
2022-12-23T18:31:10.900Z,9.20
2022-12-23T18:33:38.421Z,9.20
2022-12-23T18:36:06.057Z,9.20
2022-12-23T18:38:33.567Z,9.20
2022-12-23T18:41:01.131Z,9.20
2022-12-23T18:43:29.259Z,9.20
2022-12-23T18:45:56.933Z,9.20
2022-12-23T18:48:24.525Z,9.20
2022-12-23T18:50:51.965Z,9.20
2022-12-23T18:53:24.662Z,9.20
2022-12-23T18:55:53.718Z,9.20
2022-12-23T18:58:21.492Z,9.20
2022-12-23T19:00:50.546Z,9.10
2022-12-23T19:03:25.541Z,9.30
2022-12-23T19:05:53.989Z,9.20
2022-12-23T19:08:26.685Z,9.20
2022-12-23T19:10:56.304Z,9.20
2022-12-23T19:13:23.897Z,9.20
2022-12-23T19:15:51.409Z,9.20
2022-12-23T19:18:20.816Z,9.20
2022-12-23T19:20:48.923Z,9.20
2022-12-23T19:23:17.157Z,9.20
2022-12-23T19:25:52.446Z,9.30
2022-12-23T19:28:22.312Z,9.30
2022-12-23T19:30:50.216Z,9.30
2022-12-23T19:33:17.826Z,9.50
2022-12-23T19:35:45.402Z,9.40
2022-12-23T19:38:12.913Z,9.20
2022-12-23T19:40:40.679Z,9.10
2022-12-23T19:43:08.540Z,9.20
2022-12-23T19:48:17.384Z,9.40
2022-12-23T19:50:44.784Z,9.40
2022-12-23T19:53:12.259Z,9.30
2022-12-23T19:55:40.369Z,9.30
2022-12-23T19:58:07.857Z,9.30
2022-12-23T20:00:35.450Z,9.40
2022-12-23T20:03:02.916Z,9.50
2022-12-23T20:05:30.382Z,9.40
2022-12-23T20:07:58.009Z,9.20
2022-12-23T20:10:25.768Z,9.20
2022-12-23T20:12:53.248Z,9.30
2022-12-23T20:15:20.801Z,9.50
2022-12-23T20:17:48.327Z,9.40
2022-12-23T20:20:15.843Z,9.30
2022-12-23T20:22:43.341Z,9.20
2022-12-23T20:25:10.833Z,9.10
2022-12-23T20:27:38.867Z,9.10
2022-12-23T20:30:06.836Z,9.10
2022-12-23T20:32:34.284Z,9.10
2022-12-23T20:35:01.805Z,9.20
2022-12-23T20:37:29.297Z,9.30
2022-12-23T20:39:56.845Z,9.50
2022-12-23T20:42:26.871Z,9.50
2022-12-23T20:44:54.451Z,9.50
2022-12-23T20:47:21.806Z,9.30
2022-12-23T20:49:49.525Z,9.20
2022-12-23T20:52:17.812Z,9.20
2022-12-23T20:54:45.389Z,9.20
2022-12-23T20:57:12.917Z,9.10
2022-12-23T20:59:40.529Z,9.10
2022-12-23T21:02:10.359Z,9.10
2022-12-23T21:04:38.180Z,9.00
2022-12-23T21:07:05.649Z,9.10
2022-12-23T21:09:33.315Z,9.10
2022-12-23T21:12:01.367Z,9.10
2022-12-23T21:14:28.922Z,9.10
2022-12-23T21:16:56.516Z,9.20
2022-12-23T21:19:24.759Z,9.40
2022-12-23T21:21:53.021Z,9.50
2022-12-23T21:24:21.296Z,9.40
2022-12-23T21:26:55.570Z,9.40
2022-12-23T21:29:23.635Z,9.60
2022-12-23T21:31:51.238Z,9.50
2022-12-23T21:34:18.771Z,9.60
2022-12-23T21:36:46.317Z,9.40
2022-12-23T21:39:14.879Z,9.40
2022-12-23T21:41:42.563Z,9.20
2022-12-23T21:44:11.103Z,9.30
2022-12-23T21:46:38.718Z,9.40
2022-12-23T21:49:06.313Z,9.40
2022-12-23T21:51:40.316Z,9.40
2022-12-23T21:54:09.915Z,9.50
2022-12-23T21:56:37.927Z,9.20
2022-12-23T21:59:07.375Z,9.20
2022-12-23T22:01:35.103Z,9.20
2022-12-23T22:04:02.581Z,9.00
2022-12-23T22:06:32.075Z,9.00
2022-12-23T22:08:59.840Z,8.90
2022-12-23T22:11:28.895Z,8.90
2022-12-23T22:13:57.402Z,9.10
2022-12-23T22:16:27.997Z,9.00
2022-12-23T22:18:56.181Z,9.00
2022-12-23T22:21:24.786Z,9.00
2022-12-23T22:23:53.087Z,9.00
2022-12-23T22:26:25.130Z,9.20
2022-12-23T22:28:55.546Z,9.30
2022-12-23T22:31:43.485Z,9.30
2022-12-23T22:34:15.420Z,9.10
2022-12-23T22:36:43.486Z,9.20
2022-12-23T22:39:17.733Z,9.30
2022-12-23T22:41:47.491Z,9.00
2022-12-23T22:44:15.455Z,8.90
2022-12-23T22:46:43.101Z,9.00
2022-12-23T22:49:14.152Z,8.90
2022-12-23T22:51:42.043Z,8.80
2022-12-23T22:54:09.776Z,9.00
2022-12-23T22:56:37.337Z,9.10
2022-12-23T22:59:05.169Z,9.20
2022-12-23T23:01:34.793Z,9.20
2022-12-23T23:04:03.444Z,9.30
2022-12-23T23:06:32.218Z,9.30
2022-12-23T23:09:00.122Z,9.20
2022-12-23T23:11:27.997Z,9.10
2022-12-23T23:13:55.938Z,9.00
2022-12-23T23:16:24.259Z,9.00
2022-12-23T23:18:52.222Z,9.10
2022-12-23T23:21:19.707Z,9.10
2022-12-23T23:23:47.124Z,9.00
2022-12-23T23:26:14.659Z,9.00
2022-12-23T23:28:42.523Z,9.00
2022-12-23T23:31:40.445Z,9.00
2022-12-23T23:33:58.185Z,9.00
2022-12-23T23:36:25.812Z,9.00
2022-12-23T23:38:53.447Z,9.10
2022-12-23T23:41:23.515Z,9.20
2022-12-23T23:43:52.228Z,9.30
2022-12-23T23:46:19.825Z,9.30
2022-12-23T23:48:47.534Z,9.40
2022-12-23T23:51:15.220Z,9.30
2022-12-23T23:53:42.789Z,9.30
2022-12-23T23:56:10.337Z,9.30
2022-12-23T23:58:37.938Z,9.30
